createdAt,value
2018-03-25T00:03:58.196Z,94.60
2018-03-25T00:08:02.669Z,94.40
2018-03-25T00:12:05.269Z,94.40
2018-03-25T00:16:07.824Z,94.60
2018-03-25T00:20:11.315Z,93.90
2018-03-25T00:24:13.832Z,93.80
2018-03-25T00:28:17.164Z,94.40
2018-03-25T00:32:19.692Z,94.00
2018-03-25T00:36:23.013Z,94.00
2018-03-25T00:40:25.613Z,94.00
2018-03-25T00:44:28.166Z,93.90
2018-03-25T00:48:30.698Z,94.30
2018-03-25T00:52:34.117Z,94.70
2018-03-25T00:56:36.647Z,94.70
2018-03-25T01:00:39.277Z,94.80
2018-03-25T01:04:42.024Z,94.80
2018-03-25T01:08:44.566Z,94.40
2018-03-25T01:12:51.136Z,94.50
2018-03-25T01:16:53.976Z,94.40
2018-03-25T01:20:57.260Z,95.10
2018-03-25T01:25:00.244Z,95.10
2018-03-25T01:29:02.764Z,95.30
2018-03-25T01:33:05.612Z,94.30
2018-03-25T01:37:08.126Z,94.60
2018-03-25T01:41:11.447Z,94.70
2018-03-25T01:45:14.740Z,94.80
2018-03-25T01:49:17.407Z,94.80
2018-03-25T01:53:20.013Z,94.60
2018-03-25T01:57:22.559Z,93.80
2018-03-25T02:01:25.075Z,94.40
2018-03-25T02:05:27.625Z,94.10
2018-03-25T02:09:32.097Z,94.50
2018-03-25T02:13:34.819Z,94.90
2018-03-25T02:17:37.332Z,95.20
2018-03-25T02:21:39.921Z,95.10
2018-03-25T02:25:42.454Z,94.40
2018-03-25T02:29:50.393Z,94.60
2018-03-25T02:33:52.917Z,94.60
2018-03-25T02:37:56.220Z,94.90
2018-03-25T02:41:58.728Z,94.90
2018-03-25T02:46:01.289Z,94.80
2018-03-25T02:50:03.812Z,95.00
2018-03-25T02:54:06.735Z,94.80
2018-03-25T02:58:09.277Z,94.40
2018-03-25T03:02:12.612Z,94.50
2018-03-25T03:06:15.161Z,94.50
2018-03-25T03:10:17.713Z,94.60
2018-03-25T03:14:21.002Z,95.00
2018-03-25T03:18:23.605Z,95.00
2018-03-25T03:22:26.128Z,94.90
2018-03-25T03:26:28.687Z,94.80
2018-03-25T03:30:31.276Z,95.10
2018-03-25T03:34:33.826Z,95.20
2018-03-25T03:38:36.344Z,95.00
2018-03-25T03:42:38.937Z,95.20
2018-03-25T03:46:42.260Z,96.00
2018-03-25T03:50:44.848Z,96.00
2018-03-25T03:54:47.432Z,95.50
2018-03-25T03:58:50.000Z,95.60
2018-03-25T04:02:53.075Z,95.20
2018-03-25T04:06:55.719Z,94.90
2018-03-25T04:10:58.248Z,95.20
2018-03-25T04:15:00.852Z,95.60
2018-03-25T04:19:04.136Z,95.70
2018-03-25T04:23:07.115Z,95.70
2018-03-25T04:27:09.632Z,95.30
2018-03-25T04:31:12.264Z,94.90
2018-03-25T04:35:14.782Z,95.30
2018-03-25T04:39:17.339Z,95.60
2018-03-25T04:43:19.913Z,95.70
2018-03-25T04:47:23.363Z,95.60
2018-03-25T04:51:25.848Z,95.60
2018-03-25T04:55:31.111Z,95.40
2018-03-25T04:59:34.399Z,95.20
2018-03-25T05:03:37.260Z,95.10
2018-03-25T05:07:39.799Z,95.30
2018-03-25T05:11:42.344Z,95.50
2018-03-25T05:15:44.872Z,95.20
2018-03-25T05:19:49.288Z,95.00
2018-03-25T05:23:51.812Z,95.00
2018-03-25T05:27:54.743Z,95.50
2018-03-25T05:31:58.041Z,95.70
2018-03-25T05:36:00.692Z,96.00
2018-03-25T05:40:03.270Z,95.50
2018-03-25T05:44:06.609Z,96.00
2018-03-25T05:48:13.559Z,96.00
2018-03-25T05:52:16.236Z,95.60
2018-03-25T05:56:18.769Z,95.00
2018-03-25T06:00:22.248Z,95.80
2018-03-25T06:04:25.529Z,95.90
2018-03-25T06:08:28.135Z,95.90
2018-03-25T06:12:30.663Z,95.80
2018-03-25T06:16:33.264Z,95.90
2018-03-25T06:20:35.795Z,95.40
2018-03-25T06:24:38.345Z,95.30
2018-03-25T06:28:40.856Z,95.30
2018-03-25T06:32:43.736Z,95.50
2018-03-25T06:36:46.264Z,95.40
2018-03-25T06:40:48.822Z,95.50
2018-03-25T06:44:52.146Z,95.30
2018-03-25T06:48:55.661Z,95.30
2018-03-25T06:52:58.177Z,94.60
2018-03-25T06:57:01.496Z,94.50
2018-03-25T07:01:06.724Z,94.60
2018-03-25T07:05:09.307Z,94.60
2018-03-25T07:09:12.888Z,94.50
2018-03-25T07:13:15.433Z,94.30
2018-03-25T07:17:19.008Z,94.20
2018-03-25T07:21:26.886Z,93.90
2018-03-25T07:25:30.155Z,92.90
2018-03-25T07:29:32.716Z,92.90
2018-03-25T07:33:36.198Z,93.00
2018-03-25T07:37:39.793Z,93.50
2018-03-25T07:41:43.048Z,92.70
2018-03-25T07:45:45.926Z,92.60
2018-03-25T07:49:48.480Z,91.50
2018-03-25T07:53:51.048Z,90.30
2018-03-25T07:57:54.340Z,89.80
2018-03-25T08:01:59.692Z,90.60
2018-03-25T08:06:02.196Z,90.60
2018-03-25T08:10:05.126Z,90.50
2018-03-25T08:14:08.572Z,87.00
2018-03-25T08:18:11.176Z,86.90
2018-03-25T08:22:13.701Z,78.50
2018-03-25T08:26:16.260Z,67.00
2018-03-25T08:30:19.547Z,52.90
2018-03-25T08:34:22.216Z,52.80
2018-03-25T08:38:26.752Z,50.00
2018-03-25T08:42:30.068Z,49.00
2018-03-25T08:46:33.366Z,45.40
2018-03-25T08:50:36.908Z,45.30
2018-03-25T08:54:39.427Z,43.00
2018-03-25T08:58:44.782Z,51.00
2018-03-25T09:02:48.292Z,50.80
2018-03-25T09:06:50.943Z,48.60
2018-03-25T09:10:56.373Z,49.40
2018-03-25T09:15:00.854Z,49.30
2018-03-25T09:19:04.196Z,46.40
2018-03-25T09:23:08.505Z,42.80
2018-03-25T09:27:11.039Z,42.70
2018-03-25T09:31:14.369Z,46.80
2018-03-25T09:35:18.877Z,46.70
2018-03-25T09:39:24.720Z,43.30
2018-03-25T09:43:32.906Z,45.70
2018-03-25T09:47:38.624Z,41.40
2018-03-25T09:51:41.914Z,39.30
2018-03-25T09:55:44.481Z,39.20
2018-03-25T09:59:47.027Z,42.30
2018-03-25T10:03:52.783Z,42.20
2018-03-25T10:08:08.333Z,42.50
2018-03-25T10:12:12.985Z,42.40
2018-03-25T10:16:18.256Z,40.00
2018-03-25T10:20:20.837Z,39.80
2018-03-25T10:24:23.379Z,41.00
2018-03-25T10:28:26.715Z,40.60
2018-03-25T10:32:31.936Z,39.10
2018-03-25T10:36:34.482Z,39.00
2018-03-25T10:40:37.784Z,34.40
2018-03-25T10:44:42.336Z,34.30
2018-03-25T10:48:45.029Z,33.30
2018-03-25T10:52:47.964Z,37.10
2018-03-25T10:56:52.491Z,34.80
2018-03-25T11:00:55.443Z,35.60
2018-03-25T11:05:03.740Z,38.60
2018-03-25T11:09:09.961Z,38.30
2018-03-25T11:13:17.056Z,38.60
2018-03-25T11:17:19.749Z,39.40
2018-03-25T11:21:23.025Z,39.00
2018-03-25T11:25:26.880Z,38.90
2018-03-25T11:29:31.511Z,38.40
2018-03-25T11:33:34.068Z,38.20
2018-03-25T11:37:37.552Z,36.80
2018-03-25T11:41:40.131Z,38.40
2018-03-25T11:45:45.720Z,37.90
2018-03-25T11:49:48.564Z,38.70
2018-03-25T11:53:51.099Z,40.90
2018-03-25T11:57:54.825Z,40.10
2018-03-25T12:01:58.129Z,41.00
2018-03-25T12:06:00.745Z,41.00
2018-03-25T12:10:03.283Z,41.90
2018-03-25T12:14:05.949Z,39.70
2018-03-25T12:18:09.280Z,38.70
2018-03-25T12:22:12.849Z,38.70
2018-03-25T12:26:16.347Z,39.50
2018-03-25T12:30:18.911Z,40.10
2018-03-25T12:34:23.469Z,39.80
2018-03-25T12:38:26.157Z,42.20
2018-03-25T12:42:28.715Z,41.50
2018-03-25T12:46:31.382Z,41.90
2018-03-25T12:50:38.636Z,41.40
2018-03-25T12:54:41.343Z,42.70
2018-03-25T12:58:43.906Z,42.10
2018-03-25T13:02:46.497Z,44.10
2018-03-25T13:06:49.063Z,42.70
2018-03-25T13:10:52.532Z,42.10
2018-03-25T13:14:56.140Z,42.60
2018-03-25T13:18:59.816Z,42.70
2018-03-25T13:23:02.367Z,42.00
2018-03-25T13:27:05.343Z,43.80
2018-03-25T13:31:08.115Z,43.30
2018-03-25T13:35:10.691Z,43.80
2018-03-25T13:39:13.302Z,44.80
2018-03-25T13:43:15.904Z,43.20
2018-03-25T13:47:18.453Z,44.10
2018-03-25T13:51:21.099Z,46.90
2018-03-25T13:55:23.693Z,45.90
2018-03-25T13:59:31.973Z,44.80
2018-03-25T14:03:34.500Z,45.80
2018-03-25T14:07:39.140Z,46.20
2018-03-25T14:11:41.672Z,45.70
2018-03-25T14:15:48.074Z,46.70
2018-03-25T14:19:51.368Z,45.70
2018-03-25T14:23:53.950Z,45.70
2018-03-25T14:27:56.721Z,47.00
2018-03-25T14:31:59.304Z,46.50
2018-03-25T14:36:01.831Z,45.80
2018-03-25T14:40:05.194Z,46.70
2018-03-25T14:44:07.727Z,46.10
2018-03-25T14:48:10.296Z,46.40
2018-03-25T14:52:12.969Z,47.20
2018-03-25T14:56:17.536Z,46.70
2018-03-25T15:00:20.834Z,45.50
2018-03-25T15:04:23.396Z,45.50
2018-03-25T15:08:26.008Z,47.00
2018-03-25T15:12:29.588Z,46.80
2018-03-25T15:16:33.095Z,46.70
2018-03-25T15:20:35.644Z,46.20
2018-03-25T15:24:38.929Z,47.30
2018-03-25T15:28:42.646Z,47.30
2018-03-25T15:32:45.216Z,46.60
2018-03-25T15:36:54.186Z,46.20
2018-03-25T15:40:57.530Z,45.20
2018-03-25T15:45:00.199Z,45.20
2018-03-25T15:49:07.046Z,49.00
2018-03-25T15:53:09.609Z,49.00
2018-03-25T15:57:13.171Z,48.60
2018-03-25T16:01:15.748Z,48.20
2018-03-25T16:05:19.040Z,48.90
2018-03-25T16:09:27.488Z,48.90
2018-03-25T16:13:31.049Z,48.90
2018-03-25T16:17:33.633Z,48.70
2018-03-25T16:21:39.930Z,49.60
2018-03-25T16:25:42.552Z,49.60
2018-03-25T16:29:45.091Z,49.30
2018-03-25T16:33:48.177Z,51.30
2018-03-25T16:37:52.668Z,51.30
2018-03-25T16:41:56.344Z,50.30
2018-03-25T16:46:00.677Z,50.30
2018-03-25T16:50:04.097Z,51.70
2018-03-25T16:54:07.834Z,51.20
2018-03-25T16:58:11.157Z,53.00
2018-03-25T17:02:16.380Z,52.40
2018-03-25T17:06:19.031Z,52.40
2018-03-25T17:10:26.723Z,51.90
2018-03-25T17:14:29.324Z,51.90
2018-03-25T17:18:31.942Z,53.10
2018-03-25T17:22:34.613Z,52.60
2018-03-25T17:26:37.175Z,53.30
2018-03-25T17:30:39.774Z,55.00
2018-03-25T17:34:44.198Z,54.80
2018-03-25T17:38:46.904Z,56.50
2018-03-25T17:42:49.568Z,55.60
2018-03-25T17:46:57.216Z,57.30
2018-03-25T17:50:59.776Z,57.20
2018-03-25T17:55:02.504Z,58.60
2018-03-25T17:59:06.276Z,59.20
2018-03-25T18:03:08.840Z,59.20
2018-03-25T18:07:12.132Z,60.00
2018-03-25T18:11:14.852Z,60.00
2018-03-25T18:15:17.397Z,60.00
2018-03-25T18:19:20.124Z,60.80
2018-03-25T18:23:22.650Z,61.00
2018-03-25T18:27:25.216Z,60.90
2018-03-25T18:31:27.744Z,61.60
2018-03-25T18:35:30.425Z,60.80
2018-03-25T18:39:33.751Z,62.30
2018-03-25T18:43:37.290Z,62.30
2018-03-25T18:47:39.849Z,63.70
2018-03-25T18:51:42.427Z,62.00
2018-03-25T18:55:45.133Z,61.10
2018-03-25T18:59:52.388Z,62.30
2018-03-25T19:03:59.680Z,64.30
2018-03-25T19:08:03.256Z,62.40
2018-03-25T19:12:06.574Z,63.50
2018-03-25T19:16:10.302Z,61.70
2018-03-25T19:20:12.848Z,61.70
2018-03-25T19:24:15.484Z,62.40
2018-03-25T19:28:18.005Z,63.20
2018-03-25T19:32:20.609Z,62.00
2018-03-25T19:36:24.125Z,63.20
2018-03-25T19:40:26.724Z,63.30
2018-03-25T19:44:29.262Z,63.60
2018-03-25T19:48:32.884Z,63.60
2018-03-25T19:52:35.407Z,64.90
2018-03-25T19:56:39.752Z,64.90
2018-03-25T20:00:43.049Z,64.60
2018-03-25T20:04:45.620Z,64.10
2018-03-25T20:08:48.145Z,64.00
2018-03-25T20:12:50.704Z,64.60
2018-03-25T20:16:54.042Z,65.30
2018-03-25T20:20:58.570Z,65.30
2018-03-25T20:25:01.111Z,66.10
2018-03-25T20:29:03.660Z,66.20
2018-03-25T20:33:06.197Z,66.70
2018-03-25T20:37:09.536Z,66.10
2018-03-25T20:41:12.056Z,66.10
2018-03-25T20:45:14.617Z,66.30
2018-03-25T20:49:17.128Z,65.80
2018-03-25T20:53:19.685Z,67.10
2018-03-25T20:57:24.467Z,68.60
2018-03-25T21:01:27.312Z,68.40
2018-03-25T21:05:30.599Z,68.30
2018-03-25T21:09:33.172Z,68.30
2018-03-25T21:13:35.705Z,68.90
2018-03-25T21:17:38.249Z,69.00
2018-03-25T21:21:42.561Z,69.60
2018-03-25T21:25:45.171Z,69.50
2018-03-25T21:29:47.735Z,70.10
2018-03-25T21:33:50.287Z,69.60
2018-03-25T21:37:53.828Z,68.40
2018-03-25T21:41:58.380Z,68.40
2018-03-25T21:46:00.912Z,69.00
2018-03-25T21:50:04.223Z,70.30
2018-03-25T21:54:07.520Z,72.10
2018-03-25T21:58:11.218Z,71.20
2018-03-25T22:02:13.736Z,71.80
2018-03-25T22:06:16.585Z,73.50
2018-03-25T22:10:19.109Z,72.80
2018-03-25T22:14:22.435Z,73.70
2018-03-25T22:18:30.640Z,74.30
2018-03-25T22:22:33.612Z,74.30
2018-03-25T22:26:38.086Z,73.80
2018-03-25T22:30:40.702Z,73.80
2018-03-25T22:34:43.220Z,75.40
2018-03-25T22:38:45.780Z,75.90
2018-03-25T22:42:48.299Z,74.40
2018-03-25T22:46:50.840Z,75.10
2018-03-25T22:50:53.366Z,74.70
2018-03-25T22:54:55.924Z,75.40
2018-03-25T22:58:58.565Z,72.40
2018-03-25T23:03:01.142Z,71.80
2018-03-25T23:07:04.675Z,71.20
2018-03-25T23:11:07.345Z,71.30
2018-03-25T23:15:09.884Z,71.10
2018-03-25T23:19:12.524Z,71.20
2018-03-25T23:23:15.055Z,72.10
2018-03-25T23:27:17.625Z,72.50
2018-03-25T23:31:20.164Z,73.10
2018-03-25T23:35:23.476Z,73.20
2018-03-25T23:39:25.996Z,73.20
2018-03-25T23:43:29.308Z,73.70
2018-03-25T23:47:35.976Z,73.70
2018-03-25T23:51:38.608Z,73.20
2018-03-25T23:55:41.145Z,73.10
2018-03-25T23:59:43.683Z,73.70
